createdAt,value
2023-01-22T00:01:03.648Z,10.45
2023-01-22T00:03:30.498Z,11.32
2023-01-22T00:05:57.365Z,11.32
2023-01-22T00:08:24.010Z,11.00
2023-01-22T00:10:51.859Z,9.77
2023-01-22T00:13:19.720Z,10.40
2023-01-22T00:15:46.580Z,9.25
2023-01-22T00:18:13.249Z,8.73
2023-01-22T00:20:41.778Z,10.65
2023-01-22T00:23:08.556Z,8.95
2023-01-22T00:25:35.421Z,9.07
2023-01-22T00:28:02.287Z,7.90
2023-01-22T00:30:29.295Z,8.23
2023-01-22T00:32:56.043Z,7.75
2023-01-22T00:35:23.067Z,8.93
2023-01-22T00:37:49.803Z,7.45
2023-01-22T00:40:17.489Z,8.13
2023-01-22T00:42:44.526Z,9.45
2023-01-22T00:45:13.642Z,8.73
2023-01-22T00:47:40.877Z,10.88
2023-01-22T00:50:08.602Z,11.95
2023-01-22T00:52:37.671Z,12.65
2023-01-22T00:55:05.317Z,11.73
2023-01-22T00:57:32.116Z,15.48
2023-01-22T00:59:58.753Z,8.75
2023-01-22T01:02:25.422Z,14.48
2023-01-22T01:04:52.086Z,15.95
2023-01-22T01:07:18.764Z,15.60
2023-01-22T01:09:45.413Z,14.27
2023-01-22T01:12:12.391Z,16.98
2023-01-22T01:14:39.105Z,17.75
2023-01-22T01:17:05.823Z,21.38
2023-01-22T01:19:32.613Z,19.50
2023-01-22T01:21:59.608Z,14.20
2023-01-22T01:24:26.354Z,15.25
2023-01-22T01:26:53.327Z,24.30
2023-01-22T01:29:20.053Z,18.40
2023-01-22T01:31:47.767Z,27.98
2023-01-22T01:34:14.463Z,21.45
2023-01-22T01:36:48.723Z,34.72
2023-01-22T01:39:16.211Z,32.63
2023-01-22T01:41:42.935Z,30.73
2023-01-22T01:44:19.402Z,24.98
2023-01-22T01:46:55.637Z,20.90
2023-01-22T01:49:31.687Z,13.73
2023-01-22T01:52:05.379Z,24.13
2023-01-22T01:54:32.069Z,24.77
2023-01-22T01:57:10.269Z,20.90
2023-01-22T01:59:37.114Z,24.77
2023-01-22T02:02:04.708Z,30.55
2023-01-22T02:04:31.628Z,25.15
2023-01-22T02:06:58.308Z,21.15
2023-01-22T02:09:25.177Z,35.65
2023-01-22T02:11:52.244Z,22.58
2023-01-22T02:14:23.308Z,26.65
2023-01-22T02:17:11.621Z,24.63
2023-01-22T02:19:39.663Z,30.83
2023-01-22T02:22:29.243Z,19.48
2023-01-22T02:24:55.914Z,26.73
2023-01-22T02:27:22.699Z,14.38
2023-01-22T02:29:49.539Z,16.48
2023-01-22T02:32:16.649Z,24.05
2023-01-22T02:34:43.318Z,35.17
2023-01-22T02:37:10.376Z,22.80
2023-01-22T02:39:37.124Z,24.98
2023-01-22T02:42:05.210Z,25.33
2023-01-22T02:44:31.903Z,29.58
2023-01-22T02:46:58.677Z,26.05
2023-01-22T02:49:25.342Z,32.00
2023-01-22T02:51:52.060Z,34.55
2023-01-22T02:54:18.835Z,26.75
2023-01-22T02:56:45.562Z,28.23
2023-01-22T02:59:12.284Z,38.90
2023-01-22T03:01:39.073Z,18.88
2023-01-22T03:04:10.975Z,11.13
2023-01-22T03:06:42.805Z,21.88
2023-01-22T03:09:10.837Z,19.65
2023-01-22T03:11:39.458Z,19.92
2023-01-22T03:14:24.877Z,36.83
2023-01-22T03:17:10.289Z,34.00
2023-01-22T03:19:55.567Z,31.98
2023-01-22T03:22:22.318Z,21.27
2023-01-22T03:24:51.154Z,30.15
2023-01-22T03:27:19.511Z,24.15
2023-01-22T03:29:46.494Z,32.60
2023-01-22T03:32:13.985Z,24.95
2023-01-22T03:34:40.939Z,24.13
2023-01-22T03:37:08.748Z,32.10
2023-01-22T03:39:35.536Z,27.13
2023-01-22T03:42:02.233Z,20.75
2023-01-22T03:44:28.999Z,25.75
2023-01-22T03:46:55.983Z,28.48
2023-01-22T03:49:22.822Z,11.55
2023-01-22T03:51:49.583Z,20.20
2023-01-22T03:54:16.705Z,22.85
2023-01-22T03:56:43.620Z,18.38
2023-01-22T03:59:11.176Z,25.60
2023-01-22T04:01:37.928Z,20.77
2023-01-22T04:04:04.833Z,25.00
2023-01-22T04:06:31.550Z,12.95
2023-01-22T04:08:58.260Z,10.88
2023-01-22T04:11:25.143Z,17.65
2023-01-22T04:13:51.835Z,12.18
2023-01-22T04:16:18.499Z,18.20
2023-01-22T04:18:45.307Z,18.40
2023-01-22T04:21:12.013Z,29.52
2023-01-22T04:23:38.732Z,21.20
2023-01-22T04:26:05.444Z,33.50
2023-01-22T04:28:32.142Z,12.50
2023-01-22T04:30:59.714Z,17.40
2023-01-22T04:33:26.444Z,18.73
2023-01-22T04:35:54.651Z,15.57
2023-01-22T04:38:21.502Z,15.45
2023-01-22T04:40:48.458Z,18.17
2023-01-22T04:43:15.370Z,14.65
2023-01-22T04:45:42.074Z,11.60
2023-01-22T04:48:09.340Z,24.13
2023-01-22T04:50:36.256Z,15.13
2023-01-22T04:53:03.279Z,13.18
2023-01-22T04:55:30.393Z,9.85
2023-01-22T04:57:58.426Z,17.23
2023-01-22T05:00:26.379Z,15.15
2023-01-22T05:02:57.609Z,16.52
2023-01-22T05:05:24.943Z,14.45
2023-01-22T05:07:51.688Z,12.15
2023-01-22T05:10:18.955Z,12.80
2023-01-22T05:12:46.192Z,15.05
2023-01-22T05:15:23.586Z,11.57
2023-01-22T05:17:51.377Z,11.68
2023-01-22T05:20:18.470Z,16.85
2023-01-22T05:22:45.348Z,19.13
2023-01-22T05:25:12.770Z,15.52
2023-01-22T05:27:39.520Z,18.77
2023-01-22T05:30:06.931Z,9.70
2023-01-22T05:32:33.713Z,13.75
2023-01-22T05:35:00.351Z,15.38
2023-01-22T05:37:27.028Z,13.95
2023-01-22T05:39:53.696Z,14.23
2023-01-22T05:42:21.051Z,12.13
2023-01-22T05:44:47.757Z,12.55
2023-01-22T05:47:14.461Z,13.38
2023-01-22T05:49:41.281Z,17.67
2023-01-22T05:52:10.691Z,13.02
2023-01-22T05:54:38.980Z,22.30
2023-01-22T05:57:06.004Z,9.43
2023-01-22T05:59:32.765Z,15.13
2023-01-22T06:01:59.439Z,11.23
2023-01-22T06:04:26.206Z,14.50
2023-01-22T06:06:52.950Z,12.75
2023-01-22T06:09:19.934Z,13.77
2023-01-22T06:11:46.834Z,10.20
2023-01-22T06:14:13.780Z,11.38
2023-01-22T06:16:40.545Z,14.30
2023-01-22T06:19:07.509Z,9.00
2023-01-22T06:21:34.284Z,10.18
2023-01-22T06:24:00.958Z,10.75
2023-01-22T06:26:27.626Z,13.02
2023-01-22T06:28:55.197Z,9.77
2023-01-22T06:31:22.283Z,10.00
2023-01-22T06:33:50.069Z,12.18
2023-01-22T06:36:16.896Z,11.48
2023-01-22T06:38:43.653Z,9.35
2023-01-22T06:41:11.034Z,10.88
2023-01-22T06:43:37.812Z,13.30
2023-01-22T06:46:05.117Z,11.15
2023-01-22T06:48:31.853Z,11.80
2023-01-22T06:50:59.952Z,10.85
2023-01-22T06:53:26.838Z,10.15
2023-01-22T06:55:53.544Z,10.55
2023-01-22T06:58:20.215Z,11.70
2023-01-22T07:00:46.973Z,10.07
2023-01-22T07:03:13.688Z,10.68
2023-01-22T07:05:40.480Z,10.35
2023-01-22T07:08:07.414Z,9.93
2023-01-22T07:10:34.093Z,8.95
2023-01-22T07:13:01.576Z,9.00
2023-01-22T07:15:28.292Z,7.60
2023-01-22T07:17:55.286Z,7.70
2023-01-22T07:20:23.150Z,7.85
2023-01-22T07:22:50.819Z,8.07
2023-01-22T07:25:18.531Z,7.95
2023-01-22T07:27:45.218Z,8.25
2023-01-22T07:30:12.311Z,8.75
2023-01-22T07:32:39.079Z,8.65
2023-01-22T07:35:06.057Z,9.02
2023-01-22T07:37:32.753Z,8.25
2023-01-22T07:39:59.369Z,7.85
2023-01-22T07:42:26.076Z,8.82
2023-01-22T07:44:52.741Z,8.35
2023-01-22T07:47:19.440Z,8.38
2023-01-22T07:49:46.167Z,8.93
2023-01-22T07:52:13.031Z,9.40
2023-01-22T07:54:39.694Z,10.50
2023-01-22T07:57:06.603Z,8.85
2023-01-22T07:59:33.571Z,8.90
2023-01-22T08:02:03.276Z,10.52
2023-01-22T08:04:30.216Z,9.20
2023-01-22T08:06:56.948Z,11.73
2023-01-22T08:09:25.766Z,10.50
2023-01-22T08:11:53.464Z,10.20
2023-01-22T08:14:20.496Z,10.27
2023-01-22T08:16:47.677Z,11.98
2023-01-22T08:19:14.891Z,10.73
2023-01-22T08:21:41.578Z,11.52
2023-01-22T08:24:10.216Z,11.63
2023-01-22T08:26:37.226Z,11.43
2023-01-22T08:29:07.244Z,16.27
2023-01-22T08:31:34.446Z,18.15
2023-01-22T08:34:01.445Z,16.30
2023-01-22T08:36:28.366Z,11.15
2023-01-22T08:38:55.380Z,8.77
2023-01-22T08:41:22.792Z,10.40
2023-01-22T08:43:49.599Z,8.75
2023-01-22T08:46:16.312Z,12.82
2023-01-22T08:48:44.220Z,11.88
2023-01-22T08:51:12.288Z,9.68
2023-01-22T08:53:39.087Z,11.82
2023-01-22T08:56:06.363Z,11.73
2023-01-22T08:58:33.195Z,11.55
2023-01-22T09:01:00.283Z,9.25
2023-01-22T09:03:26.990Z,15.07
2023-01-22T09:05:53.881Z,9.50
2023-01-22T09:08:21.702Z,9.82
2023-01-22T09:10:48.676Z,8.20
2023-01-22T09:13:15.400Z,11.27
2023-01-22T09:15:42.121Z,10.05
2023-01-22T09:18:08.807Z,9.85
2023-01-22T09:20:35.622Z,10.65
2023-01-22T09:23:02.411Z,11.93
2023-01-22T09:25:29.379Z,12.57
2023-01-22T09:28:00.351Z,11.95
2023-01-22T09:30:30.078Z,9.48
2023-01-22T09:32:56.985Z,8.05
2023-01-22T09:35:24.082Z,9.13
2023-01-22T09:37:50.840Z,10.57
2023-01-22T09:40:28.183Z,9.32
2023-01-22T09:43:07.391Z,9.25
2023-01-22T09:45:38.169Z,8.48
2023-01-22T09:48:11.275Z,8.85
2023-01-22T09:50:38.412Z,13.05
2023-01-22T09:53:07.605Z,9.38
2023-01-22T09:55:41.058Z,9.10
2023-01-22T09:58:15.963Z,8.98
2023-01-22T10:00:50.214Z,10.05
2023-01-22T10:03:30.245Z,9.57
2023-01-22T10:06:00.757Z,12.63
2023-01-22T10:08:51.824Z,13.63
2023-01-22T10:11:18.747Z,13.70
2023-01-22T10:13:45.482Z,11.75
2023-01-22T10:16:12.834Z,11.60
2023-01-22T10:18:58.334Z,14.00
2023-01-22T10:21:26.683Z,12.77
2023-01-22T10:23:56.172Z,12.90
2023-01-22T10:26:43.083Z,17.40
2023-01-22T10:29:32.358Z,14.60
2023-01-22T10:32:24.467Z,22.58
2023-01-22T10:35:11.963Z,14.35
2023-01-22T10:37:46.785Z,17.60
2023-01-22T10:40:38.836Z,23.52
2023-01-22T10:43:11.555Z,21.73
2023-01-22T10:45:39.341Z,15.65
2023-01-22T10:48:15.509Z,22.45
2023-01-22T10:50:43.243Z,37.13
2023-01-22T10:53:34.422Z,20.20
2023-01-22T10:56:03.563Z,39.08
2023-01-22T10:58:36.172Z,28.75
2023-01-22T11:01:06.605Z,23.75
2023-01-22T11:03:38.782Z,28.20
2023-01-22T11:06:17.452Z,23.63
2023-01-22T11:08:51.738Z,25.48
2023-01-22T11:11:24.365Z,30.27
2023-01-22T11:14:05.464Z,27.98
2023-01-22T11:16:34.970Z,31.00
2023-01-22T11:19:18.147Z,27.65
2023-01-22T11:21:52.688Z,18.73
2023-01-22T11:24:31.901Z,29.08
2023-01-22T11:27:27.648Z,20.40
2023-01-22T11:30:22.875Z,29.58
2023-01-22T11:32:56.535Z,29.75
2023-01-22T11:35:28.809Z,28.85
2023-01-22T11:37:58.593Z,38.05
2023-01-22T11:40:29.919Z,35.05
2023-01-22T11:43:31.401Z,25.77
2023-01-22T11:46:11.203Z,23.75
2023-01-22T11:48:46.982Z,29.92
2023-01-22T11:51:55.445Z,20.10
2023-01-22T11:54:37.327Z,29.15
2023-01-22T11:57:26.853Z,25.10
2023-01-22T12:00:29.947Z,35.03
2023-01-22T12:03:11.891Z,33.92
2023-01-22T12:06:02.965Z,33.08
2023-01-22T12:08:32.328Z,30.63
2023-01-22T12:11:17.081Z,28.33
2023-01-22T12:14:10.576Z,29.20
2023-01-22T12:17:18.150Z,28.92
2023-01-22T12:20:26.948Z,30.38
2023-01-22T12:23:06.723Z,27.77
2023-01-22T12:25:51.403Z,29.27
2023-01-22T12:28:27.228Z,25.08
2023-01-22T12:30:59.853Z,19.67
2023-01-22T12:33:30.106Z,27.90
2023-01-22T12:36:00.406Z,29.10
2023-01-22T12:38:30.164Z,26.70
2023-01-22T12:41:33.663Z,20.75
2023-01-22T12:44:17.042Z,24.85
2023-01-22T12:47:08.894Z,17.35
2023-01-22T12:49:49.648Z,26.70
2023-01-22T12:53:01.698Z,23.85
2023-01-22T12:55:44.104Z,28.73
2023-01-22T12:58:25.285Z,28.63
2023-01-22T13:01:12.786Z,33.50
2023-01-22T13:03:41.666Z,43.97
2023-01-22T13:06:30.302Z,26.13
2023-01-22T13:08:57.020Z,27.63
2023-01-22T13:11:38.062Z,33.25
2023-01-22T13:14:21.742Z,33.65
2023-01-22T13:16:56.353Z,11.50
2023-01-22T13:19:30.838Z,12.90
2023-01-22T13:21:59.610Z,9.55
2023-01-22T13:24:26.302Z,10.18
2023-01-22T13:26:57.015Z,11.65
2023-01-22T13:29:32.869Z,11.68
2023-01-22T13:32:02.840Z,13.93
2023-01-22T13:34:29.907Z,11.00
2023-01-22T13:36:57.530Z,10.38
2023-01-22T13:39:24.581Z,9.85
2023-01-22T13:41:53.346Z,10.88
2023-01-22T13:44:22.800Z,10.40
2023-01-22T13:46:50.509Z,10.60
2023-01-22T13:49:22.385Z,10.60
2023-01-22T13:51:50.396Z,11.02
2023-01-22T13:54:22.643Z,11.73
2023-01-22T13:56:49.489Z,11.88
2023-01-22T13:59:21.656Z,10.18
2023-01-22T14:01:49.085Z,12.15
2023-01-22T14:04:29.202Z,14.05
2023-01-22T14:06:56.363Z,11.80
2023-01-22T14:09:32.575Z,11.45
2023-01-22T14:12:00.472Z,10.20
2023-01-22T14:14:27.561Z,11.77
2023-01-22T14:16:54.362Z,10.45
2023-01-22T14:19:21.167Z,11.88
2023-01-22T14:21:48.349Z,11.35
2023-01-22T14:24:15.066Z,18.23
2023-01-22T14:26:41.804Z,16.27
2023-01-22T14:29:08.572Z,19.30
2023-01-22T14:31:35.370Z,13.10
2023-01-22T14:34:02.110Z,12.38
2023-01-22T14:36:28.851Z,10.20
2023-01-22T14:38:57.509Z,12.75
2023-01-22T14:41:24.165Z,23.83
2023-01-22T14:43:50.831Z,14.10
2023-01-22T14:46:17.601Z,16.60
2023-01-22T14:48:44.290Z,10.80
2023-01-22T14:51:11.965Z,11.73
2023-01-22T14:53:39.074Z,13.73
2023-01-22T14:56:06.335Z,12.98
2023-01-22T14:58:34.925Z,10.90
2023-01-22T15:01:18.506Z,11.68
2023-01-22T15:03:45.292Z,10.75
2023-01-22T15:06:12.137Z,12.13
2023-01-22T15:08:38.975Z,11.38
2023-01-22T15:11:05.993Z,12.07
2023-01-22T15:13:34.164Z,11.80
2023-01-22T15:16:05.475Z,10.32
2023-01-22T15:18:33.979Z,9.70
2023-01-22T15:21:01.307Z,11.43
2023-01-22T15:23:27.975Z,13.13
2023-01-22T15:26:02.767Z,10.10
2023-01-22T15:30:59.328Z,11.65
2023-01-22T15:33:26.205Z,10.68
2023-01-22T15:35:53.092Z,12.48
2023-01-22T15:38:19.820Z,13.52
2023-01-22T15:40:46.516Z,12.82
2023-01-22T15:43:13.293Z,11.45
2023-01-22T15:45:40.201Z,14.68
2023-01-22T15:48:08.126Z,13.07
2023-01-22T15:50:34.882Z,14.05
2023-01-22T15:53:01.653Z,16.17
2023-01-22T15:55:28.287Z,13.38
2023-01-22T15:57:54.955Z,12.75
2023-01-22T16:00:22.068Z,19.52
2023-01-22T16:02:48.773Z,13.40
2023-01-22T16:05:15.728Z,14.88
2023-01-22T16:07:42.765Z,14.82
2023-01-22T16:10:10.876Z,17.10
2023-01-22T16:12:38.778Z,17.33
2023-01-22T16:15:11.015Z,18.25
2023-01-22T16:17:45.102Z,16.23
2023-01-22T16:20:12.196Z,24.50
2023-01-22T16:22:38.858Z,27.25
2023-01-22T16:25:05.891Z,33.35
2023-01-22T16:27:32.617Z,20.92
2023-01-22T16:29:59.418Z,22.85
2023-01-22T16:32:26.064Z,23.40
2023-01-22T16:34:52.716Z,13.55
2023-01-22T16:37:19.484Z,14.00
2023-01-22T16:39:46.168Z,31.30
2023-01-22T16:42:12.908Z,34.40
2023-01-22T16:44:39.543Z,24.23
2023-01-22T16:47:06.270Z,32.88
2023-01-22T16:49:33.927Z,29.45
2023-01-22T16:52:16.572Z,17.65
2023-01-22T16:54:43.862Z,26.23
2023-01-22T16:57:10.650Z,20.65
2023-01-22T16:59:37.901Z,25.08
2023-01-22T17:02:05.607Z,15.85
2023-01-22T17:04:32.661Z,21.08
2023-01-22T17:06:59.638Z,15.05
2023-01-22T17:09:28.656Z,11.95
2023-01-22T17:11:57.622Z,24.92
2023-01-22T17:14:26.922Z,23.20
2023-01-22T17:16:53.707Z,17.17
2023-01-22T17:19:20.833Z,13.43
2023-01-22T17:21:51.502Z,12.13
2023-01-22T17:24:18.149Z,18.65
2023-01-22T17:26:46.528Z,24.55
2023-01-22T17:29:14.643Z,20.48
2023-01-22T17:31:41.689Z,24.88
2023-01-22T17:34:10.907Z,21.85
2023-01-22T17:36:39.046Z,22.27
2023-01-22T17:39:06.159Z,20.00
2023-01-22T17:41:34.181Z,17.27
2023-01-22T17:44:01.177Z,14.95
2023-01-22T17:46:32.064Z,28.92
2023-01-22T17:49:01.207Z,16.52
2023-01-22T17:51:29.871Z,14.77
2023-01-22T17:53:59.341Z,14.32
2023-01-22T17:56:32.248Z,19.52
2023-01-22T17:59:01.369Z,22.23
2023-01-22T18:01:30.215Z,18.63
2023-01-22T18:04:02.714Z,22.00
2023-01-22T18:06:30.321Z,22.60
2023-01-22T18:08:57.354Z,39.28
2023-01-22T18:11:29.791Z,29.42
2023-01-22T18:14:00.191Z,23.05
2023-01-22T18:16:30.004Z,18.55
2023-01-22T18:18:58.905Z,18.45
2023-01-22T18:21:29.283Z,14.32
2023-01-22T18:23:55.969Z,17.08
2023-01-22T18:26:26.345Z,31.30
2023-01-22T18:28:55.494Z,16.05
2023-01-22T18:31:24.680Z,13.02
2023-01-22T18:33:54.343Z,14.52
2023-01-22T18:36:23.620Z,15.82
2023-01-22T18:38:56.031Z,15.63
2023-01-22T18:41:27.264Z,20.08
2023-01-22T18:43:56.498Z,25.90
2023-01-22T18:46:24.889Z,21.80
2023-01-22T18:48:57.798Z,30.20
2023-01-22T18:51:25.203Z,18.70
2023-01-22T18:53:51.968Z,21.27
2023-01-22T18:56:18.812Z,13.38
2023-01-22T18:58:46.165Z,14.43
2023-01-22T19:01:21.854Z,27.98
2023-01-22T19:03:54.746Z,13.45
2023-01-22T19:06:24.197Z,11.93
2023-01-22T19:08:56.577Z,22.45
2023-01-22T19:11:23.738Z,25.20
2023-01-22T19:13:53.424Z,22.85
2023-01-22T19:16:20.329Z,34.80
2023-01-22T19:18:47.166Z,22.10
2023-01-22T19:21:17.240Z,33.22
2023-01-22T19:23:51.834Z,31.73
2023-01-22T19:26:34.374Z,18.10
2023-01-22T19:29:04.243Z,17.10
2023-01-22T19:31:33.785Z,15.13
2023-01-22T19:34:01.791Z,14.43
2023-01-22T19:36:30.958Z,15.05
2023-01-22T19:38:59.483Z,23.05
2023-01-22T19:41:26.644Z,17.10
2023-01-22T19:43:58.144Z,21.95
2023-01-22T19:46:28.940Z,16.20
2023-01-22T19:48:56.072Z,18.08
2023-01-22T19:51:24.600Z,15.18
2023-01-22T19:53:51.312Z,20.15
2023-01-22T19:56:23.943Z,22.40
2023-01-22T19:58:51.970Z,26.55
2023-01-22T20:01:19.010Z,32.35
2023-01-22T20:03:45.684Z,24.85
2023-01-22T20:06:14.341Z,34.45
2023-01-22T20:08:41.863Z,20.67
2023-01-22T20:11:10.360Z,20.73
2023-01-22T20:13:38.244Z,23.67
2023-01-22T20:16:06.855Z,30.17
2023-01-22T20:18:33.967Z,23.40
2023-01-22T20:21:02.295Z,40.28
2023-01-22T20:23:29.420Z,34.13
2023-01-22T20:25:56.503Z,24.77
2023-01-22T20:28:23.537Z,24.33
2023-01-22T20:31:02.098Z,34.88
2023-01-22T20:33:28.917Z,23.88
2023-01-22T20:35:57.236Z,31.38
2023-01-22T20:38:24.323Z,22.40
2023-01-22T20:40:51.262Z,23.98
2023-01-22T20:43:19.083Z,19.83
2023-01-22T20:45:56.174Z,21.85
2023-01-22T20:48:22.930Z,24.33
2023-01-22T20:50:49.667Z,30.63
2023-01-22T20:53:16.414Z,23.30
2023-01-22T20:55:43.043Z,24.67
2023-01-22T20:58:09.789Z,19.52
2023-01-22T21:00:36.435Z,36.85
2023-01-22T21:03:03.178Z,34.25
2023-01-22T21:05:29.916Z,33.40
2023-01-22T21:07:56.604Z,26.73
2023-01-22T21:10:23.431Z,27.15
2023-01-22T21:12:50.105Z,32.65
2023-01-22T21:15:16.976Z,27.80
2023-01-22T21:17:43.654Z,34.75
2023-01-22T21:20:11.688Z,38.95
2023-01-22T21:22:38.373Z,15.35
2023-01-22T21:25:05.299Z,15.82
2023-01-22T21:27:32.057Z,35.45
2023-01-22T21:29:58.744Z,16.73
2023-01-22T21:32:25.474Z,30.08
2023-01-22T21:34:52.149Z,14.45
2023-01-22T21:37:18.887Z,24.35
2023-01-22T21:39:45.900Z,24.17
2023-01-22T21:42:31.769Z,23.92
2023-01-22T21:45:17.176Z,28.10
2023-01-22T21:47:43.984Z,29.73
2023-01-22T21:50:11.255Z,27.05
2023-01-22T21:52:37.990Z,33.45
2023-01-22T21:55:05.186Z,25.27
2023-01-22T21:57:31.984Z,23.23
2023-01-22T21:59:58.843Z,30.60
2023-01-22T22:02:25.675Z,22.55
2023-01-22T22:04:52.399Z,29.65
2023-01-22T22:07:19.241Z,16.58
2023-01-22T22:09:46.029Z,22.98
2023-01-22T22:12:12.744Z,16.73
2023-01-22T22:14:39.545Z,15.27
2023-01-22T22:17:07.699Z,17.38
2023-01-22T22:19:34.543Z,18.38
2023-01-22T22:22:01.230Z,19.35
2023-01-22T22:24:28.040Z,43.80
2023-01-22T22:26:54.741Z,24.90
2023-01-22T22:29:21.485Z,17.25
2023-01-22T22:31:48.316Z,25.58
2023-01-22T22:34:15.039Z,23.60
2023-01-22T22:36:41.893Z,29.25
2023-01-22T22:39:08.580Z,39.17
2023-01-22T22:41:39.696Z,22.77
2023-01-22T22:44:06.901Z,32.80
2023-01-22T22:46:36.293Z,28.85
2023-01-22T22:49:03.756Z,11.43
2023-01-22T22:51:33.182Z,14.30
2023-01-22T22:54:02.831Z,35.92
2023-01-22T22:56:30.290Z,15.60
2023-01-22T22:58:58.928Z,26.33
2023-01-22T23:01:26.282Z,16.70
2023-01-22T23:03:53.587Z,21.10
2023-01-22T23:06:23.796Z,12.98
2023-01-22T23:08:52.715Z,14.48
2023-01-22T23:11:24.773Z,10.93
2023-01-22T23:13:51.942Z,10.80
2023-01-22T23:16:21.335Z,10.88
2023-01-22T23:18:50.298Z,15.18
2023-01-22T23:21:22.380Z,19.55
2023-01-22T23:23:50.172Z,9.35
2023-01-22T23:26:19.718Z,8.52
2023-01-22T23:28:47.745Z,7.32
2023-01-22T23:31:16.635Z,7.80
2023-01-22T23:33:44.141Z,9.23
2023-01-22T23:36:14.075Z,9.60
2023-01-22T23:38:41.199Z,10.35
2023-01-22T23:41:10.225Z,9.13
2023-01-22T23:43:36.907Z,8.43
2023-01-22T23:46:13.749Z,11.57
2023-01-22T23:48:40.982Z,9.30
2023-01-22T23:51:09.325Z,11.88
2023-01-22T23:53:37.675Z,10.32
2023-01-22T23:56:05.383Z,9.05
2023-01-22T23:58:32.152Z,8.93
